Aviation Digital Data Service (ADDS)

Output produced by METARs form (1141 UTC 27 May 2017)
found at http://www.aviationweather.gov/adds/metars/
 
LCRA 271050Z 20007KT 9999 FEW060 27/07 Q1011 NOSIG
TAF LCRA 271042Z 2712/2806 20010KT CAVOK
       
LCEN 271120Z 17006KT 9999 FEW025 SCT080 28/07 Q1011 NOSIG RMK RWY11 19006KT
TAF LCEN 271040Z 2712/2812 21012KT 9999 SCT030 SCT100 
     PROB40 
     TEMPO 2712/2715 5000 SHRA FEW025CB BKN030
       
LCLK 271130Z 17010KT 140V200 9999 FEW025 25/13 Q1011 NOSIG
TAF LCLK 271130Z 2712/2812 18012KT 9999 FEW025 
     BECMG 2716/2720 32006KT 
     BECMG 2807/2811 22014KT
       
LCPH 271130Z 28010KT 9999 FEW025 26/18 Q1011
TAF LCPH 271130Z 2712/2812 27012KT 9999 FEW020 
     BECMG 2716/2720 02006KT 
     BECMG 2807/2811 29012KT
       
LCRA 271050Z 20007KT 9999 FEW060 27/07 Q1011 NOSIG
TAF LCRA 271042Z 2712/2806 20010KT CAVOK
       
LCLK 271130Z 17010KT 140V200 9999 FEW025 25/13 Q1011 NOSIG
TAF LCLK 271130Z 2712/2812 18012KT 9999 FEW025 
     BECMG 2716/2720 32006KT 
     BECMG 2807/2811 22014KT
       
LCPH 271130Z 28010KT 9999 FEW025 26/18 Q1011
TAF LCPH 271130Z 2712/2812 27012KT 9999 FEW020 
     BECMG 2716/2720 02006KT 
     BECMG 2807/2811 29012KT